sensor_id;sensor_type;location;lat;lon;timestamp;temperature;humidity
354;DHT22;165;53.592;10.044;2022-11-15T00:01:34;5.80;99.90
354;DHT22;165;53.592;10.044;2022-11-15T00:04:03;5.80;99.90
354;DHT22;165;53.592;10.044;2022-11-15T00:06:28;5.80;99.90
354;DHT22;165;53.592;10.044;2022-11-15T00:08:54;5.80;99.90
354;DHT22;165;53.592;10.044;2022-11-15T00:11:19;5.80;99.90
354;DHT22;165;53.592;10.044;2022-11-15T00:13:45;5.70;99.90
354;DHT22;165;53.592;10.044;2022-11-15T00:16:10;5.70;99.90
354;DHT22;165;53.592;10.044;2022-11-15T00:18:36;5.80;99.90
354;DHT22;165;53.592;10.044;2022-11-15T00:21:05;5.80;99.90
354;DHT22;165;53.592;10.044;2022-11-15T00:23:32;5.70;99.90
354;DHT22;165;53.592;10.044;2022-11-15T00:25:58;5.70;99.90
354;DHT22;165;53.592;10.044;2022-11-15T00:28:24;5.70;99.90
354;DHT22;165;53.592;10.044;2022-11-15T00:30:50;5.80;99.90
354;DHT22;165;53.592;10.044;2022-11-15T00:33:15;5.90;99.90
354;DHT22;165;53.592;10.044;2022-11-15T00:35:41;5.90;99.90
354;DHT22;165;53.592;10.044;2022-11-15T00:38:06;6.00;99.90
354;DHT22;165;53.592;10.044;2022-11-15T00:40:32;6.10;99.90
354;DHT22;165;53.592;10.044;2022-11-15T00:42:58;6.10;99.90
354;DHT22;165;53.592;10.044;2022-11-15T00:45:24;6.20;99.90
354;DHT22;165;53.592;10.044;2022-11-15T00:47:49;6.20;99.90
354;DHT22;165;53.592;10.044;2022-11-15T00:50:15;6.10;99.90
354;DHT22;165;53.592;10.044;2022-11-15T00:52:41;6.20;99.90
354;DHT22;165;53.592;10.044;2022-11-15T00:55:15;6.10;99.90
354;DHT22;165;53.592;10.044;2022-11-15T00:57:40;6.00;99.90
354;DHT22;165;53.592;10.044;2022-11-15T01:00:07;6.00;99.90
354;DHT22;165;53.592;10.044;2022-11-15T01:02:32;6.00;99.90
354;DHT22;165;53.592;10.044;2022-11-15T01:04:58;6.00;99.90
354;DHT22;165;53.592;10.044;2022-11-15T01:07:23;6.00;99.90
354;DHT22;165;53.592;10.044;2022-11-15T01:09:49;6.10;99.90
354;DHT22;165;53.592;10.044;2022-11-15T01:12:15;6.20;99.90
354;DHT22;165;53.592;10.044;2022-11-15T01:14:40;6.20;99.90
354;DHT22;165;53.592;10.044;2022-11-15T01:17:06;6.30;99.90
354;DHT22;165;53.592;10.044;2022-11-15T01:19:31;6.30;99.90
354;DHT22;165;53.592;10.044;2022-11-15T01:21:57;6.30;99.90
354;DHT22;165;53.592;10.044;2022-11-15T01:24:22;6.20;99.90
354;DHT22;165;53.592;10.044;2022-11-15T01:26:47;6.20;99.90
354;DHT22;165;53.592;10.044;2022-11-15T01:29:13;6.10;99.90
354;DHT22;165;53.592;10.044;2022-11-15T01:31:38;6.10;99.90
354;DHT22;165;53.592;10.044;2022-11-15T01:34:04;6.00;99.90
354;DHT22;165;53.592;10.044;2022-11-15T01:36:30;6.00;99.90
354;DHT22;165;53.592;10.044;2022-11-15T01:38:57;6.00;99.90
354;DHT22;165;53.592;10.044;2022-11-15T01:41:25;5.90;99.90
354;DHT22;165;53.592;10.044;2022-11-15T01:43:56;5.90;99.90
354;DHT22;165;53.592;10.044;2022-11-15T01:46:32;5.90;99.90
354;DHT22;165;53.592;10.044;2022-11-15T01:49:02;5.80;99.90
354;DHT22;165;53.592;10.044;2022-11-15T01:51:30;5.80;99.90
354;DHT22;165;53.592;10.044;2022-11-15T01:54:00;5.80;99.90
354;DHT22;165;53.592;10.044;2022-11-15T01:56:29;5.80;99.90
354;DHT22;165;53.592;10.044;2022-11-15T01:58:57;5.80;99.90
354;DHT22;165;53.592;10.044;2022-11-15T02:01:25;5.80;99.90
354;DHT22;165;53.592;10.044;2022-11-15T02:03:58;5.80;99.90
354;DHT22;165;53.592;10.044;2022-11-15T02:06:24;5.80;99.90
354;DHT22;165;53.592;10.044;2022-11-15T02:08:50;5.70;99.90
354;DHT22;165;53.592;10.044;2022-11-15T02:11:16;5.80;99.90
354;DHT22;165;53.592;10.044;2022-11-15T02:13:42;5.80;99.90
354;DHT22;165;53.592;10.044;2022-11-15T02:22:10;5.70;99.90
354;DHT22;165;53.592;10.044;2022-11-15T02:24:51;5.70;99.90
354;DHT22;165;53.592;10.044;2022-11-15T02:35:21;5.60;99.90
354;DHT22;165;53.592;10.044;2022-11-15T02:37:58;5.60;99.90
354;DHT22;165;53.592;10.044;2022-11-15T02:40:37;5.60;99.90
354;DHT22;165;53.592;10.044;2022-11-15T02:43:11;5.60;99.90
354;DHT22;165;53.592;10.044;2022-11-15T02:46:05;5.70;99.90
354;DHT22;165;53.592;10.044;2022-11-15T02:48:34;5.70;99.90
354;DHT22;165;53.592;10.044;2022-11-15T02:51:00;5.70;99.90
354;DHT22;165;53.592;10.044;2022-11-15T02:53:27;5.70;99.90
354;DHT22;165;53.592;10.044;2022-11-15T02:55:54;5.60;99.90
354;DHT22;165;53.592;10.044;2022-11-15T02:58:27;5.70;99.90
354;DHT22;165;53.592;10.044;2022-11-15T03:06:35;5.70;99.90
354;DHT22;165;53.592;10.044;2022-11-15T03:11:38;5.70;99.90
354;DHT22;165;53.592;10.044;2022-11-15T03:14:15;5.70;99.90
354;DHT22;165;53.592;10.044;2022-11-15T03:17:03;5.80;99.90
354;DHT22;165;53.592;10.044;2022-11-15T03:19:40;5.70;99.90
354;DHT22;165;53.592;10.044;2022-11-15T03:22:11;5.80;99.90
354;DHT22;165;53.592;10.044;2022-11-15T03:24:38;5.70;99.90
354;DHT22;165;53.592;10.044;2022-11-15T03:27:06;5.70;99.90
354;DHT22;165;53.592;10.044;2022-11-15T03:29:37;5.70;99.90
354;DHT22;165;53.592;10.044;2022-11-15T03:32:12;5.60;99.90
354;DHT22;165;53.592;10.044;2022-11-15T03:34:58;5.60;99.90
354;DHT22;165;53.592;10.044;2022-11-15T03:37:54;5.60;99.90
354;DHT22;165;53.592;10.044;2022-11-15T03:40:29;5.70;99.90
354;DHT22;165;53.592;10.044;2022-11-15T03:45:46;5.70;99.90
354;DHT22;165;53.592;10.044;2022-11-15T03:48:25;5.70;99.90
354;DHT22;165;53.592;10.044;2022-11-15T03:50:52;5.70;99.90
354;DHT22;165;53.592;10.044;2022-11-15T03:53:18;5.70;99.90
354;DHT22;165;53.592;10.044;2022-11-15T03:55:44;5.80;99.90
354;DHT22;165;53.592;10.044;2022-11-15T03:58:09;5.80;99.90
354;DHT22;165;53.592;10.044;2022-11-15T04:00:35;5.90;99.90
354;DHT22;165;53.592;10.044;2022-11-15T04:03:00;5.90;99.90
354;DHT22;165;53.592;10.044;2022-11-15T04:05:26;5.90;99.90
354;DHT22;165;53.592;10.044;2022-11-15T04:07:51;5.90;99.90
354;DHT22;165;53.592;10.044;2022-11-15T04:10:17;5.90;99.90
354;DHT22;165;53.592;10.044;2022-11-15T04:12:44;5.90;99.90
354;DHT22;165;53.592;10.044;2022-11-15T04:15:15;5.90;99.90
354;DHT22;165;53.592;10.044;2022-11-15T04:17:49;5.90;99.90
354;DHT22;165;53.592;10.044;2022-11-15T04:20:18;5.90;99.90
354;DHT22;165;53.592;10.044;2022-11-15T04:23:06;5.90;99.90
354;DHT22;165;53.592;10.044;2022-11-15T04:25:52;5.90;99.90
354;DHT22;165;53.592;10.044;2022-11-15T04:28:19;5.90;99.90
354;DHT22;165;53.592;10.044;2022-11-15T04:30:45;5.90;99.90
354;DHT22;165;53.592;10.044;2022-11-15T04:33:10;5.90;99.90
354;DHT22;165;53.592;10.044;2022-11-15T04:35:36;5.90;99.90
354;DHT22;165;53.592;10.044;2022-11-15T04:38:03;6.00;99.90
354;DHT22;165;53.592;10.044;2022-11-15T04:40:28;6.10;99.90
354;DHT22;165;53.592;10.044;2022-11-15T04:42:55;6.20;99.90
354;DHT22;165;53.592;10.044;2022-11-15T04:45:20;6.10;99.90
354;DHT22;165;53.592;10.044;2022-11-15T04:47:46;6.10;99.90
354;DHT22;165;53.592;10.044;2022-11-15T04:50:13;6.10;99.90
354;DHT22;165;53.592;10.044;2022-11-15T04:52:46;6.10;99.90
354;DHT22;165;53.592;10.044;2022-11-15T04:55:14;6.30;99.90
354;DHT22;165;53.592;10.044;2022-11-15T04:57:40;6.30;99.90
354;DHT22;165;53.592;10.044;2022-11-15T05:00:08;6.40;99.90
354;DHT22;165;53.592;10.044;2022-11-15T05:02:34;6.40;99.90
354;DHT22;165;53.592;10.044;2022-11-15T05:05:18;6.40;99.90
354;DHT22;165;53.592;10.044;2022-11-15T05:07:44;6.40;99.90
354;DHT22;165;53.592;10.044;2022-11-15T05:10:09;6.40;99.90
354;DHT22;165;53.592;10.044;2022-11-15T05:12:35;6.50;99.90
354;DHT22;165;53.592;10.044;2022-11-15T05:15:01;6.50;99.90
354;DHT22;165;53.592;10.044;2022-11-15T05:17:26;6.60;99.90
354;DHT22;165;53.592;10.044;2022-11-15T05:19:52;6.60;99.90
354;DHT22;165;53.592;10.044;2022-11-15T05:22:18;6.70;99.90
354;DHT22;165;53.592;10.044;2022-11-15T05:24:44;6.60;99.90
354;DHT22;165;53.592;10.044;2022-11-15T05:27:09;6.70;99.90
354;DHT22;165;53.592;10.044;2022-11-15T05:29:35;6.80;99.90
354;DHT22;165;53.592;10.044;2022-11-15T05:32:00;6.80;99.90
354;DHT22;165;53.592;10.044;2022-11-15T05:34:26;6.80;99.90
354;DHT22;165;53.592;10.044;2022-11-15T05:36:52;6.80;99.90
354;DHT22;165;53.592;10.044;2022-11-15T05:39:18;6.80;99.90
354;DHT22;165;53.592;10.044;2022-11-15T05:41:54;6.90;99.90
354;DHT22;165;53.592;10.044;2022-11-15T05:44:23;6.90;99.90
354;DHT22;165;53.592;10.044;2022-11-15T05:46:51;6.90;99.90
354;DHT22;165;53.592;10.044;2022-11-15T05:49:20;6.90;99.90
354;DHT22;165;53.592;10.044;2022-11-15T05:51:48;6.90;99.90
354;DHT22;165;53.592;10.044;2022-11-15T05:54:15;6.90;99.90
354;DHT22;165;53.592;10.044;2022-11-15T05:56:41;7.00;99.90
354;DHT22;165;53.592;10.044;2022-11-15T05:59:08;7.00;99.90
354;DHT22;165;53.592;10.044;2022-11-15T06:01:34;7.00;99.90
354;DHT22;165;53.592;10.044;2022-11-15T06:04:00;7.00;99.90
354;DHT22;165;53.592;10.044;2022-11-15T06:06:27;7.10;99.90
354;DHT22;165;53.592;10.044;2022-11-15T06:08:53;7.10;99.90
354;DHT22;165;53.592;10.044;2022-11-15T06:11:18;7.10;99.90
354;DHT22;165;53.592;10.044;2022-11-15T06:13:44;7.10;99.90
354;DHT22;165;53.592;10.044;2022-11-15T06:16:09;7.10;99.90
354;DHT22;165;53.592;10.044;2022-11-15T06:18:35;7.20;99.90
354;DHT22;165;53.592;10.044;2022-11-15T06:21:01;7.20;99.90
354;DHT22;165;53.592;10.044;2022-11-15T06:23:27;7.20;99.90
354;DHT22;165;53.592;10.044;2022-11-15T06:25:53;7.30;99.90
354;DHT22;165;53.592;10.044;2022-11-15T06:28:18;7.30;99.90
354;DHT22;165;53.592;10.044;2022-11-15T06:30:44;7.30;99.90
354;DHT22;165;53.592;10.044;2022-11-15T06:33:10;7.30;99.90
354;DHT22;165;53.592;10.044;2022-11-15T06:35:35;7.30;99.90
354;DHT22;165;53.592;10.044;2022-11-15T06:38:09;7.30;99.90
354;DHT22;165;53.592;10.044;2022-11-15T06:40:36;7.40;99.90
354;DHT22;165;53.592;10.044;2022-11-15T06:43:04;7.40;99.90
354;DHT22;165;53.592;10.044;2022-11-15T06:45:30;7.40;99.90
354;DHT22;165;53.592;10.044;2022-11-15T06:47:56;7.40;99.90
354;DHT22;165;53.592;10.044;2022-11-15T06:50:22;7.50;99.90
354;DHT22;165;53.592;10.044;2022-11-15T06:52:47;7.50;99.90
354;DHT22;165;53.592;10.044;2022-11-15T06:55:13;7.50;99.90
354;DHT22;165;53.592;10.044;2022-11-15T06:57:46;7.60;99.90
354;DHT22;165;53.592;10.044;2022-11-15T07:00:13;7.60;99.90
354;DHT22;165;53.592;10.044;2022-11-15T07:02:38;7.60;99.90
354;DHT22;165;53.592;10.044;2022-11-15T07:05:04;7.60;99.90
354;DHT22;165;53.592;10.044;2022-11-15T07:07:30;7.70;99.90
354;DHT22;165;53.592;10.044;2022-11-15T07:09:55;7.70;99.90
354;DHT22;165;53.592;10.044;2022-11-15T07:12:21;7.70;99.90
354;DHT22;165;53.592;10.044;2022-11-15T07:14:46;7.80;99.90
354;DHT22;165;53.592;10.044;2022-11-15T07:17:12;7.70;99.90
354;DHT22;165;53.592;10.044;2022-11-15T07:19:37;7.80;99.90
354;DHT22;165;53.592;10.044;2022-11-15T07:22:03;7.80;99.90
354;DHT22;165;53.592;10.044;2022-11-15T07:24:29;7.90;99.90
354;DHT22;165;53.592;10.044;2022-11-15T07:26:54;7.90;99.90
354;DHT22;165;53.592;10.044;2022-11-15T07:29:20;8.00;99.90
354;DHT22;165;53.592;10.044;2022-11-15T07:31:45;8.00;99.90
354;DHT22;165;53.592;10.044;2022-11-15T07:34:11;8.00;99.90
354;DHT22;165;53.592;10.044;2022-11-15T07:36:36;8.00;99.90
354;DHT22;165;53.592;10.044;2022-11-15T07:39:02;8.10;99.90
354;DHT22;165;53.592;10.044;2022-11-15T07:41:28;8.10;99.90
354;DHT22;165;53.592;10.044;2022-11-15T07:43:56;8.10;99.90
354;DHT22;165;53.592;10.044;2022-11-15T07:46:22;8.10;99.90
354;DHT22;165;53.592;10.044;2022-11-15T07:48:48;8.10;99.90
354;DHT22;165;53.592;10.044;2022-11-15T07:51:14;8.20;99.90
354;DHT22;165;53.592;10.044;2022-11-15T07:53:41;8.20;99.90
354;DHT22;165;53.592;10.044;2022-11-15T07:56:07;8.20;99.90
354;DHT22;165;53.592;10.044;2022-11-15T07:58:33;8.10;99.90
354;DHT22;165;53.592;10.044;2022-11-15T08:01:03;8.10;99.90
354;DHT22;165;53.592;10.044;2022-11-15T08:03:29;8.10;99.90
354;DHT22;165;53.592;10.044;2022-11-15T08:05:54;8.10;99.90
354;DHT22;165;53.592;10.044;2022-11-15T08:17:03;8.20;99.90
354;DHT22;165;53.592;10.044;2022-11-15T08:19:28;8.20;99.90
354;DHT22;165;53.592;10.044;2022-11-15T08:21:55;8.20;99.90
354;DHT22;165;53.592;10.044;2022-11-15T08:24:23;8.20;99.90
354;DHT22;165;53.592;10.044;2022-11-15T08:26:48;8.20;99.90
354;DHT22;165;53.592;10.044;2022-11-15T08:29:14;8.10;99.90
354;DHT22;165;53.592;10.044;2022-11-15T08:31:39;8.10;99.90
354;DHT22;165;53.592;10.044;2022-11-15T08:34:05;8.10;99.90
354;DHT22;165;53.592;10.044;2022-11-15T08:38:59;8.20;99.90
354;DHT22;165;53.592;10.044;2022-11-15T08:41:28;8.20;99.90
354;DHT22;165;53.592;10.044;2022-11-15T08:43:55;8.30;99.90
354;DHT22;165;53.592;10.044;2022-11-15T08:46:20;8.30;99.90
354;DHT22;165;53.592;10.044;2022-11-15T08:48:46;8.30;99.90
354;DHT22;165;53.592;10.044;2022-11-15T08:51:11;8.40;99.90
354;DHT22;165;53.592;10.044;2022-11-15T08:53:37;8.40;99.90
354;DHT22;165;53.592;10.044;2022-11-15T08:56:07;8.40;99.90
354;DHT22;165;53.592;10.044;2022-11-15T08:58:33;8.50;99.90
354;DHT22;165;53.592;10.044;2022-11-15T09:00:59;8.50;99.90
354;DHT22;165;53.592;10.044;2022-11-15T09:03:24;8.60;99.90
354;DHT22;165;53.592;10.044;2022-11-15T09:05:57;8.60;99.90
354;DHT22;165;53.592;10.044;2022-11-15T09:08:24;8.70;99.90
354;DHT22;165;53.592;10.044;2022-11-15T09:10:50;8.80;99.90
354;DHT22;165;53.592;10.044;2022-11-15T09:13:18;8.80;99.90
354;DHT22;165;53.592;10.044;2022-11-15T09:15:44;8.90;99.90
354;DHT22;165;53.592;10.044;2022-11-15T09:18:13;8.90;99.90
354;DHT22;165;53.592;10.044;2022-11-15T09:20:39;9.00;99.90
354;DHT22;165;53.592;10.044;2022-11-15T09:23:10;9.10;99.90
354;DHT22;165;53.592;10.044;2022-11-15T09:25:36;9.10;99.90
354;DHT22;165;53.592;10.044;2022-11-15T09:28:06;9.20;99.90
354;DHT22;165;53.592;10.044;2022-11-15T09:30:32;9.20;99.90
354;DHT22;165;53.592;10.044;2022-11-15T09:35:36;9.30;99.90
354;DHT22;165;53.592;10.044;2022-11-15T09:38:03;9.40;99.90
354;DHT22;165;53.592;10.044;2022-11-15T09:40:31;9.50;99.90
354;DHT22;165;53.592;10.044;2022-11-15T09:46:12;9.70;99.90
354;DHT22;165;53.592;10.044;2022-11-15T09:48:59;9.80;99.90
354;DHT22;165;53.592;10.044;2022-11-15T09:51:40;10.00;99.90
354;DHT22;165;53.592;10.044;2022-11-15T09:54:33;10.10;99.90
354;DHT22;165;53.592;10.044;2022-11-15T09:57:26;10.10;99.90
354;DHT22;165;53.592;10.044;2022-11-15T10:05:10;10.10;99.90
354;DHT22;165;53.592;10.044;2022-11-15T10:07:51;10.20;99.90
354;DHT22;165;53.592;10.044;2022-11-15T10:10:41;10.40;99.90
354;DHT22;165;53.592;10.044;2022-11-15T10:13:19;10.40;99.90
354;DHT22;165;53.592;10.044;2022-11-15T10:15:47;10.50;99.90
354;DHT22;165;53.592;10.044;2022-11-15T10:18:16;10.50;99.90
354;DHT22;165;53.592;10.044;2022-11-15T10:23:16;10.60;99.90
354;DHT22;165;53.592;10.044;2022-11-15T10:25:45;10.50;99.90
354;DHT22;165;53.592;10.044;2022-11-15T10:28:22;10.60;99.90
354;DHT22;165;53.592;10.044;2022-11-15T10:30:57;10.70;99.90
354;DHT22;165;53.592;10.044;2022-11-15T10:33:33;10.70;99.90
354;DHT22;165;53.592;10.044;2022-11-15T10:41:21;10.90;99.90
354;DHT22;165;53.592;10.044;2022-11-15T10:46:40;10.90;99.90
354;DHT22;165;53.592;10.044;2022-11-15T10:49:16;11.00;99.90
354;DHT22;165;53.592;10.044;2022-11-15T10:54:42;10.90;99.90
354;DHT22;165;53.592;10.044;2022-11-15T10:57:18;10.90;99.90
354;DHT22;165;53.592;10.044;2022-11-15T10:59:54;10.90;99.90
354;DHT22;165;53.592;10.044;2022-11-15T11:04:58;10.80;99.90
354;DHT22;165;53.592;10.044;2022-11-15T11:07:30;10.90;99.90
354;DHT22;165;53.592;10.044;2022-11-15T11:10:19;10.90;99.90
354;DHT22;165;53.592;10.044;2022-11-15T11:12:44;11.00;99.90
354;DHT22;165;53.592;10.044;2022-11-15T11:15:12;11.00;99.90
354;DHT22;165;53.592;10.044;2022-11-15T11:20:54;11.30;99.90
354;DHT22;165;53.592;10.044;2022-11-15T11:23:59;11.30;99.90
354;DHT22;165;53.592;10.044;2022-11-15T11:26:40;11.30;99.90
354;DHT22;165;53.592;10.044;2022-11-15T11:32:26;11.50;99.90
354;DHT22;165;53.592;10.044;2022-11-15T11:35:27;11.40;99.90
354;DHT22;165;53.592;10.044;2022-11-15T11:43:55;11.50;99.90
354;DHT22;165;53.592;10.044;2022-11-15T11:46:34;11.40;99.90
354;DHT22;165;53.592;10.044;2022-11-15T11:49:14;11.50;99.90
354;DHT22;165;53.592;10.044;2022-11-15T11:51:46;11.50;99.90
354;DHT22;165;53.592;10.044;2022-11-15T11:54:20;11.60;99.90
354;DHT22;165;53.592;10.044;2022-11-15T11:56:46;11.60;99.90
354;DHT22;165;53.592;10.044;2022-11-15T11:59:36;11.60;99.90
354;DHT22;165;53.592;10.044;2022-11-15T12:02:21;11.70;99.90
354;DHT22;165;53.592;10.044;2022-11-15T12:04:52;11.60;99.90
354;DHT22;165;53.592;10.044;2022-11-15T12:07:29;11.70;99.90
354;DHT22;165;53.592;10.044;2022-11-15T12:10:44;11.60;99.90
354;DHT22;165;53.592;10.044;2022-11-15T12:13:24;11.80;99.90
354;DHT22;165;53.592;10.044;2022-11-15T12:18:43;12.00;99.90
354;DHT22;165;53.592;10.044;2022-11-15T12:21:35;12.00;99.90
354;DHT22;165;53.592;10.044;2022-11-15T12:24:08;12.00;99.90
354;DHT22;165;53.592;10.044;2022-11-15T12:27:16;12.10;99.90
354;DHT22;165;53.592;10.044;2022-11-15T12:29:49;12.10;99.90
354;DHT22;165;53.592;10.044;2022-11-15T12:32:31;12.10;99.90
354;DHT22;165;53.592;10.044;2022-11-15T12:34:59;12.10;99.90
354;DHT22;165;53.592;10.044;2022-11-15T12:42:44;12.50;99.90
354;DHT22;165;53.592;10.044;2022-11-15T12:45:33;12.50;99.90
354;DHT22;165;53.592;10.044;2022-11-15T12:53:28;12.30;99.90
354;DHT22;165;53.592;10.044;2022-11-15T13:06:50;12.20;99.90
354;DHT22;165;53.592;10.044;2022-11-15T13:17:55;12.10;99.90
354;DHT22;165;53.592;10.044;2022-11-15T13:20:31;12.00;99.90
354;DHT22;165;53.592;10.044;2022-11-15T13:23:10;12.00;99.90
354;DHT22;165;53.592;10.044;2022-11-15T13:28:44;12.10;99.90
354;DHT22;165;53.592;10.044;2022-11-15T13:31:18;12.10;99.90
354;DHT22;165;53.592;10.044;2022-11-15T13:33:46;12.10;99.90
354;DHT22;165;53.592;10.044;2022-11-15T13:36:25;12.10;99.90
354;DHT22;165;53.592;10.044;2022-11-15T13:39:01;12.00;99.90
354;DHT22;165;53.592;10.044;2022-11-15T13:41:33;12.10;99.90
354;DHT22;165;53.592;10.044;2022-11-15T13:44:22;12.00;99.90
354;DHT22;165;53.592;10.044;2022-11-15T13:47:03;11.90;99.90
354;DHT22;165;53.592;10.044;2022-11-15T13:49:30;11.90;99.90
354;DHT22;165;53.592;10.044;2022-11-15T13:51:56;11.80;99.90
354;DHT22;165;53.592;10.044;2022-11-15T13:54:30;11.80;99.90
354;DHT22;165;53.592;10.044;2022-11-15T13:57:05;11.80;99.90
354;DHT22;165;53.592;10.044;2022-11-15T13:59:51;11.80;99.90
354;DHT22;165;53.592;10.044;2022-11-15T14:02:20;11.90;99.90
354;DHT22;165;53.592;10.044;2022-11-15T14:05:11;11.80;99.90
354;DHT22;165;53.592;10.044;2022-11-15T14:11:17;11.80;99.90
354;DHT22;165;53.592;10.044;2022-11-15T14:16:35;11.80;99.90
354;DHT22;165;53.592;10.044;2022-11-15T14:19:02;11.90;99.90
354;DHT22;165;53.592;10.044;2022-11-15T14:21:28;11.90;99.90
354;DHT22;165;53.592;10.044;2022-11-15T14:24:14;11.90;99.90
354;DHT22;165;53.592;10.044;2022-11-15T14:26:40;11.70;99.90
354;DHT22;165;53.592;10.044;2022-11-15T14:29:26;11.70;99.90
354;DHT22;165;53.592;10.044;2022-11-15T14:31:54;11.60;99.90
354;DHT22;165;53.592;10.044;2022-11-15T14:34:19;11.70;99.90
354;DHT22;165;53.592;10.044;2022-11-15T14:36:47;11.60;99.90
354;DHT22;165;53.592;10.044;2022-11-15T14:41:48;11.60;99.90
354;DHT22;165;53.592;10.044;2022-11-15T14:46:51;11.40;99.90
354;DHT22;165;53.592;10.044;2022-11-15T14:49:19;11.40;99.90
354;DHT22;165;53.592;10.044;2022-11-15T14:51:56;11.30;99.90
354;DHT22;165;53.592;10.044;2022-11-15T14:54:45;11.30;99.90
354;DHT22;165;53.592;10.044;2022-11-15T15:02:29;11.10;99.90
354;DHT22;165;53.592;10.044;2022-11-15T15:08:05;11.00;99.90
354;DHT22;165;53.592;10.044;2022-11-15T15:16:52;10.90;99.90
354;DHT22;165;53.592;10.044;2022-11-15T15:19:26;10.80;99.90
354;DHT22;165;53.592;10.044;2022-11-15T15:21:57;10.70;99.90
354;DHT22;165;53.592;10.044;2022-11-15T15:24:25;10.70;99.90
354;DHT22;165;53.592;10.044;2022-11-15T15:29:23;10.60;99.90
354;DHT22;165;53.592;10.044;2022-11-15T15:31:49;10.50;99.90
354;DHT22;165;53.592;10.044;2022-11-15T15:34:14;10.50;99.90
354;DHT22;165;53.592;10.044;2022-11-15T15:36:40;10.50;99.90
354;DHT22;165;53.592;10.044;2022-11-15T15:39:09;10.50;99.90
354;DHT22;165;53.592;10.044;2022-11-15T15:41:35;10.40;99.90
354;DHT22;165;53.592;10.044;2022-11-15T15:44:00;10.40;99.90
354;DHT22;165;53.592;10.044;2022-11-15T15:46:26;10.30;99.90
354;DHT22;165;53.592;10.044;2022-11-15T15:48:51;10.30;99.90
354;DHT22;165;53.592;10.044;2022-11-15T15:51:17;10.20;99.90
354;DHT22;165;53.592;10.044;2022-11-15T15:53:43;10.20;99.90
354;DHT22;165;53.592;10.044;2022-11-15T15:56:11;10.10;99.90
354;DHT22;165;53.592;10.044;2022-11-15T15:58:37;10.20;99.90
354;DHT22;165;53.592;10.044;2022-11-15T16:01:02;10.20;99.90
354;DHT22;165;53.592;10.044;2022-11-15T16:03:28;10.20;99.90
354;DHT22;165;53.592;10.044;2022-11-15T16:05:54;10.20;99.90
354;DHT22;165;53.592;10.044;2022-11-15T16:08:21;10.20;99.90
354;DHT22;165;53.592;10.044;2022-11-15T16:10:47;10.10;99.90
354;DHT22;165;53.592;10.044;2022-11-15T16:13:12;10.10;99.90
354;DHT22;165;53.592;10.044;2022-11-15T16:15:38;10.00;99.90
354;DHT22;165;53.592;10.044;2022-11-15T16:18:05;10.00;99.90
354;DHT22;165;53.592;10.044;2022-11-15T16:20:39;10.00;99.90
354;DHT22;165;53.592;10.044;2022-11-15T16:23:07;10.10;99.90
354;DHT22;165;53.592;10.044;2022-11-15T16:25:40;10.10;99.90
354;DHT22;165;53.592;10.044;2022-11-15T16:30:44;10.20;99.90
354;DHT22;165;53.592;10.044;2022-11-15T16:33:10;10.20;99.90
354;DHT22;165;53.592;10.044;2022-11-15T16:35:35;10.30;99.90
354;DHT22;165;53.592;10.044;2022-11-15T16:38:01;10.30;99.90
354;DHT22;165;53.592;10.044;2022-11-15T16:40:29;10.30;99.90
354;DHT22;165;53.592;10.044;2022-11-15T16:42:59;10.20;99.90
354;DHT22;165;53.592;10.044;2022-11-15T16:45:27;10.20;99.90
354;DHT22;165;53.592;10.044;2022-11-15T16:47:54;10.30;99.90
354;DHT22;165;53.592;10.044;2022-11-15T16:50:25;10.30;99.90
354;DHT22;165;53.592;10.044;2022-11-15T16:52:56;10.20;99.90
354;DHT22;165;53.592;10.044;2022-11-15T16:55:23;10.30;99.90
354;DHT22;165;53.592;10.044;2022-11-15T16:57:49;10.30;99.90
354;DHT22;165;53.592;10.044;2022-11-15T17:00:17;10.30;99.90
354;DHT22;165;53.592;10.044;2022-11-15T17:02:44;10.30;99.90
354;DHT22;165;53.592;10.044;2022-11-15T17:05:10;10.20;99.90
354;DHT22;165;53.592;10.044;2022-11-15T17:07:36;10.30;99.90
354;DHT22;165;53.592;10.044;2022-11-15T17:10:02;10.30;99.90
354;DHT22;165;53.592;10.044;2022-11-15T17:12:31;10.20;99.90
354;DHT22;165;53.592;10.044;2022-11-15T17:14:56;10.20;99.90
354;DHT22;165;53.592;10.044;2022-11-15T17:17:22;10.20;99.90
354;DHT22;165;53.592;10.044;2022-11-15T17:19:52;10.10;99.90
354;DHT22;165;53.592;10.044;2022-11-15T17:22:18;10.10;99.90
354;DHT22;165;53.592;10.044;2022-11-15T17:24:43;10.10;99.90
354;DHT22;165;53.592;10.044;2022-11-15T17:27:10;10.00;99.90
354;DHT22;165;53.592;10.044;2022-11-15T17:29:36;10.00;99.90
354;DHT22;165;53.592;10.044;2022-11-15T17:32:03;10.00;99.90
354;DHT22;165;53.592;10.044;2022-11-15T17:34:43;10.00;99.90
354;DHT22;165;53.592;10.044;2022-11-15T17:37:09;10.00;99.90
354;DHT22;165;53.592;10.044;2022-11-15T17:39:37;10.00;99.90
354;DHT22;165;53.592;10.044;2022-11-15T17:42:03;10.00;99.90
354;DHT22;165;53.592;10.044;2022-11-15T17:44:28;10.00;99.90
354;DHT22;165;53.592;10.044;2022-11-15T17:46:54;10.00;99.90
354;DHT22;165;53.592;10.044;2022-11-15T17:49:19;10.00;99.90
354;DHT22;165;53.592;10.044;2022-11-15T17:51:45;10.00;99.90
354;DHT22;165;53.592;10.044;2022-11-15T17:54:10;10.10;99.90
354;DHT22;165;53.592;10.044;2022-11-15T17:56:38;10.10;99.90
354;DHT22;165;53.592;10.044;2022-11-15T17:59:07;10.10;99.90
354;DHT22;165;53.592;10.044;2022-11-15T18:01:35;10.20;99.90
354;DHT22;165;53.592;10.044;2022-11-15T18:04:03;10.20;99.90
354;DHT22;165;53.592;10.044;2022-11-15T18:06:31;10.20;99.90
354;DHT22;165;53.592;10.044;2022-11-15T18:08:58;10.30;99.90
354;DHT22;165;53.592;10.044;2022-11-15T18:11:26;10.30;99.90
354;DHT22;165;53.592;10.044;2022-11-15T18:13:57;10.30;99.90
354;DHT22;165;53.592;10.044;2022-11-15T18:16:31;10.30;99.90
354;DHT22;165;53.592;10.044;2022-11-15T18:18:57;10.40;99.90
354;DHT22;165;53.592;10.044;2022-11-15T18:21:25;10.40;99.90
354;DHT22;165;53.592;10.044;2022-11-15T18:23:53;10.40;99.90
354;DHT22;165;53.592;10.044;2022-11-15T18:26:19;10.40;99.90
354;DHT22;165;53.592;10.044;2022-11-15T18:28:47;10.40;99.90
354;DHT22;165;53.592;10.044;2022-11-15T18:31:15;10.40;99.90
354;DHT22;165;53.592;10.044;2022-11-15T18:33:41;10.40;99.90
354;DHT22;165;53.592;10.044;2022-11-15T18:36:08;10.40;99.90
354;DHT22;165;53.592;10.044;2022-11-15T18:38:34;10.40;99.90
354;DHT22;165;53.592;10.044;2022-11-15T18:41:08;10.40;99.90
354;DHT22;165;53.592;10.044;2022-11-15T18:43:34;10.40;99.90
354;DHT22;165;53.592;10.044;2022-11-15T18:46:07;10.40;99.90
354;DHT22;165;53.592;10.044;2022-11-15T18:48:34;10.40;99.90
354;DHT22;165;53.592;10.044;2022-11-15T18:51:10;10.40;99.90
354;DHT22;165;53.592;10.044;2022-11-15T18:53:45;10.40;99.90
354;DHT22;165;53.592;10.044;2022-11-15T18:56:14;10.40;99.90
354;DHT22;165;53.592;10.044;2022-11-15T18:58:42;10.30;99.90
354;DHT22;165;53.592;10.044;2022-11-15T19:01:16;10.30;99.90
354;DHT22;165;53.592;10.044;2022-11-15T19:03:44;10.30;99.90
354;DHT22;165;53.592;10.044;2022-11-15T19:06:13;10.30;99.90